createdAt,value
2023-03-06T00:00:35.477Z,1.00
2023-03-06T00:03:40.021Z,0.80
2023-03-06T00:06:43.269Z,0.80
2023-03-06T00:09:46.264Z,0.80
2023-03-06T00:12:49.733Z,0.80
2023-03-06T00:15:52.822Z,0.80
2023-03-06T00:18:57.537Z,0.80
2023-03-06T00:22:00.497Z,0.80
2023-03-06T00:25:03.481Z,0.80
2023-03-06T00:28:08.198Z,0.80
2023-03-06T00:31:11.297Z,0.80
2023-03-06T00:34:16.270Z,0.80
2023-03-06T00:37:19.254Z,0.60
2023-03-06T00:40:22.987Z,0.60
2023-03-06T00:43:26.127Z,0.50
2023-03-06T00:46:29.103Z,0.60
2023-03-06T00:49:33.532Z,0.50
2023-03-06T00:52:36.995Z,0.50
2023-03-06T00:55:40.162Z,0.40
2023-03-06T00:58:43.100Z,0.40
2023-03-06T01:01:46.400Z,0.50
2023-03-06T01:04:50.800Z,0.50
2023-03-06T01:07:53.922Z,0.40
2023-03-06T01:10:56.909Z,0.40
2023-03-06T01:14:00.008Z,0.40
2023-03-06T01:17:03.077Z,0.40
2023-03-06T01:20:10.021Z,0.40
2023-03-06T01:23:12.967Z,0.50
2023-03-06T01:26:16.351Z,0.50
2023-03-06T01:29:19.858Z,0.60
2023-03-06T01:32:23.158Z,0.50
2023-03-06T01:35:27.770Z,0.40
2023-03-06T01:38:30.814Z,0.40
2023-03-06T01:41:33.898Z,0.50
2023-03-06T01:44:36.887Z,0.50
2023-03-06T01:47:40.353Z,0.50
2023-03-06T01:50:45.270Z,0.50
2023-03-06T01:53:51.631Z,0.60
2023-03-06T01:56:58.327Z,0.60
2023-03-06T02:00:06.604Z,0.50
2023-03-06T02:03:12.519Z,0.50
2023-03-06T02:06:20.026Z,0.40
2023-03-06T02:09:23.123Z,0.50
2023-03-06T02:12:27.389Z,0.60
2023-03-06T02:15:31.756Z,0.60
2023-03-06T02:18:35.766Z,0.60
2023-03-06T02:21:40.176Z,0.60
2023-03-06T02:24:51.099Z,0.70
2023-03-06T02:27:55.598Z,0.80
2023-03-06T02:30:58.823Z,0.80
2023-03-06T02:34:04.125Z,0.80
2023-03-06T02:37:10.456Z,0.80
2023-03-06T02:40:16.175Z,0.90
2023-03-06T02:43:24.295Z,1.00
2023-03-06T02:46:27.350Z,1.00
2023-03-06T02:49:30.348Z,1.00
2023-03-06T02:52:33.483Z,1.00
2023-03-06T02:55:36.688Z,1.00
2023-03-06T02:58:41.358Z,1.10
2023-03-06T03:01:44.621Z,1.10
2023-03-06T03:04:49.154Z,1.20
2023-03-06T03:07:52.181Z,1.20
2023-03-06T03:10:56.339Z,1.20
2023-03-06T03:14:02.305Z,1.30
2023-03-06T03:17:05.841Z,1.30
2023-03-06T03:20:12.724Z,1.40
2023-03-06T03:23:15.742Z,1.40
2023-03-06T03:26:21.288Z,1.40
2023-03-06T03:29:25.744Z,1.40
2023-03-06T03:32:28.791Z,1.50
2023-03-06T03:35:31.822Z,1.50
2023-03-06T03:38:35.746Z,1.60
2023-03-06T03:41:41.058Z,1.50
2023-03-06T03:44:45.803Z,1.60
2023-03-06T03:47:48.812Z,1.60
2023-03-06T03:50:52.027Z,1.60
2023-03-06T03:53:58.056Z,1.60
2023-03-06T03:57:01.016Z,1.70
2023-03-06T04:00:07.889Z,1.70
2023-03-06T04:03:11.026Z,1.70
2023-03-06T04:06:14.822Z,1.80
2023-03-06T04:09:17.836Z,1.80
2023-03-06T04:12:20.868Z,1.80
2023-03-06T04:15:25.282Z,1.80
2023-03-06T04:18:28.455Z,1.80
2023-03-06T04:21:31.451Z,1.80
2023-03-06T04:24:34.620Z,1.70
2023-03-06T04:27:37.916Z,1.70
2023-03-06T04:30:42.433Z,1.60
2023-03-06T04:33:45.743Z,1.70
2023-03-06T04:36:48.989Z,1.50
2023-03-06T04:39:52.906Z,1.50
2023-03-06T04:42:56.521Z,1.40
2023-03-06T04:46:01.284Z,1.40
2023-03-06T04:49:04.891Z,1.40
2023-03-06T04:52:08.900Z,1.40
2023-03-06T04:55:15.130Z,1.20
2023-03-06T04:58:18.138Z,1.30
2023-03-06T05:01:22.507Z,1.20
2023-03-06T05:04:25.665Z,1.10
2023-03-06T05:07:28.601Z,1.10
2023-03-06T05:10:31.790Z,1.10
2023-03-06T05:13:35.017Z,1.00
2023-03-06T05:16:39.560Z,1.00
2023-03-06T05:19:42.636Z,1.00
2023-03-06T05:22:45.852Z,1.00
2023-03-06T05:25:49.032Z,1.00
2023-03-06T05:28:52.349Z,1.00
2023-03-06T05:31:56.700Z,1.00
2023-03-06T05:34:59.904Z,1.00
2023-03-06T05:38:02.941Z,1.00
2023-03-06T05:41:06.211Z,0.90
2023-03-06T05:44:09.530Z,1.00
2023-03-06T05:47:14.555Z,0.90
2023-03-06T05:50:18.164Z,0.80
2023-03-06T05:53:21.289Z,0.70
2023-03-06T05:56:24.363Z,0.70
2023-03-06T05:59:29.025Z,0.70
2023-03-06T06:02:33.375Z,0.60
2023-03-06T06:05:40.179Z,0.60
2023-03-06T06:08:43.827Z,0.70
2023-03-06T06:11:46.807Z,0.70
2023-03-06T06:14:49.846Z,0.80
2023-03-06T06:17:54.142Z,0.80
2023-03-06T06:20:57.204Z,0.80
2023-03-06T06:24:00.168Z,0.80
2023-03-06T06:27:04.021Z,0.80
2023-03-06T06:30:11.574Z,0.80
2023-03-06T06:33:18.875Z,0.80
2023-03-06T06:36:22.554Z,0.80
2023-03-06T06:39:25.840Z,0.80
2023-03-06T06:42:35.194Z,0.80
2023-03-06T06:45:42.824Z,0.80
2023-03-06T06:48:49.677Z,0.80
2023-03-06T06:51:52.630Z,0.80
2023-03-06T06:54:55.851Z,0.80
2023-03-06T06:57:58.914Z,0.80
2023-03-06T07:01:06.551Z,0.80
2023-03-06T07:04:12.522Z,0.80
2023-03-06T07:07:15.611Z,0.80
2023-03-06T07:10:20.721Z,0.80
2023-03-06T07:13:24.567Z,0.80
2023-03-06T07:16:27.804Z,0.80
2023-03-06T07:19:32.718Z,0.90
2023-03-06T07:22:49.918Z,0.80
2023-03-06T07:25:54.596Z,0.80
2023-03-06T07:28:58.171Z,0.80
2023-03-06T07:32:01.368Z,1.00
2023-03-06T07:35:19.694Z,1.00
2023-03-06T07:38:23.262Z,1.00
2023-03-06T07:41:26.248Z,1.00
2023-03-06T07:44:29.184Z,1.10
2023-03-06T07:47:32.269Z,1.10
2023-03-06T07:50:36.632Z,1.00
2023-03-06T07:53:39.637Z,1.10
2023-03-06T07:56:42.576Z,1.00
2023-03-06T07:59:45.630Z,1.10
2023-03-06T08:02:49.501Z,1.10
2023-03-06T08:05:53.895Z,1.20
2023-03-06T08:08:58.098Z,1.20
2023-03-06T08:12:01.049Z,1.20
2023-03-06T08:15:04.198Z,1.20
2023-03-06T08:18:07.437Z,1.40
2023-03-06T08:21:13.802Z,1.40
2023-03-06T08:24:18.513Z,1.30
2023-03-06T08:27:21.766Z,1.40
2023-03-06T08:30:25.134Z,1.40
2023-03-06T08:33:28.151Z,1.40
2023-03-06T08:36:32.617Z,1.50
2023-03-06T08:39:35.675Z,1.50
2023-03-06T08:42:38.722Z,1.50
2023-03-06T08:45:41.741Z,1.50
2023-03-06T08:48:44.792Z,1.40
2023-03-06T08:51:49.304Z,1.40
2023-03-06T08:54:52.389Z,1.40
2023-03-06T08:57:55.379Z,1.40
2023-03-06T09:00:59.166Z,1.40
2023-03-06T09:04:04.441Z,1.40
2023-03-06T09:07:09.050Z,1.50
2023-03-06T09:10:15.764Z,1.50
2023-03-06T09:13:18.788Z,1.50
2023-03-06T09:16:22.166Z,1.60
2023-03-06T09:19:25.231Z,1.60
2023-03-06T09:22:29.982Z,1.60
2023-03-06T09:25:32.928Z,1.60
2023-03-06T09:28:38.862Z,1.60
2023-03-06T09:31:41.882Z,1.50
2023-03-06T09:34:44.872Z,1.60
2023-03-06T09:37:49.186Z,1.60
2023-03-06T09:41:04.476Z,1.50
2023-03-06T09:44:14.515Z,1.60
2023-03-06T09:47:46.855Z,1.60
2023-03-06T09:50:55.852Z,1.60
2023-03-06T09:54:07.401Z,1.70
2023-03-06T09:57:19.558Z,1.80
2023-03-06T10:00:29.211Z,2.00
2023-03-06T10:03:39.380Z,2.00
2023-03-06T10:06:48.613Z,2.10
2023-03-06T10:09:57.980Z,1.90
2023-03-06T10:13:07.045Z,2.00
2023-03-06T10:16:23.095Z,2.00
2023-03-06T10:19:34.160Z,1.90
2023-03-06T10:22:46.094Z,2.00
2023-03-06T10:26:00.862Z,1.70
2023-03-06T10:29:23.218Z,1.60
2023-03-06T10:32:39.536Z,1.70
2023-03-06T10:35:52.175Z,1.80
2023-03-06T10:38:56.364Z,1.90
2023-03-06T10:42:01.272Z,1.80
2023-03-06T10:45:13.223Z,1.80
2023-03-06T10:48:20.579Z,1.80
2023-03-06T10:51:26.919Z,1.70
2023-03-06T10:54:31.472Z,1.40
2023-03-06T10:57:37.990Z,1.50
2023-03-06T11:00:40.930Z,1.50
2023-03-06T11:03:43.927Z,1.50
2023-03-06T11:06:49.179Z,1.60
2023-03-06T11:10:03.374Z,1.60
2023-03-06T11:13:22.702Z,1.60
2023-03-06T11:16:28.494Z,1.70
2023-03-06T11:19:32.691Z,1.70
2023-03-06T11:22:37.276Z,1.70
2023-03-06T11:25:44.249Z,1.90
2023-03-06T11:28:51.067Z,2.00
2023-03-06T11:31:57.424Z,2.00
2023-03-06T11:35:03.647Z,2.00
2023-03-06T11:38:12.925Z,2.00
2023-03-06T11:41:26.083Z,2.10
2023-03-06T11:44:42.979Z,2.20
2023-03-06T11:47:50.110Z,2.30
2023-03-06T11:50:54.479Z,2.20
2023-03-06T11:54:00.860Z,2.20
2023-03-06T11:57:07.915Z,2.30
2023-03-06T12:00:26.655Z,2.20
2023-03-06T12:04:09.301Z,2.20
2023-03-06T12:07:22.862Z,2.30
2023-03-06T12:10:31.058Z,2.40
2023-03-06T12:13:44.496Z,2.40
2023-03-06T12:16:59.694Z,2.50
2023-03-06T12:20:21.150Z,2.50
2023-03-06T12:23:37.344Z,2.50
2023-03-06T12:26:56.251Z,2.40
2023-03-06T12:30:16.405Z,2.60
2023-03-06T12:33:30.518Z,2.80
2023-03-06T12:36:42.521Z,2.90
2023-03-06T12:39:58.231Z,3.10
2023-03-06T12:43:20.804Z,3.10
2023-03-06T12:46:25.133Z,3.10
2023-03-06T12:49:33.177Z,3.30
2023-03-06T12:52:37.208Z,3.30
2023-03-06T12:55:43.435Z,3.20
2023-03-06T12:58:52.325Z,3.30
2023-03-06T13:02:15.862Z,3.40
2023-03-06T13:05:50.802Z,3.50
2023-03-06T13:09:23.620Z,3.70
2023-03-06T13:12:39.506Z,4.00
2023-03-06T13:15:44.116Z,4.20
2023-03-06T13:19:03.508Z,4.30
2023-03-06T13:22:16.487Z,4.20
2023-03-06T13:25:37.696Z,4.20
2023-03-06T13:28:49.978Z,4.20
2023-03-06T13:32:08.114Z,4.10
2023-03-06T13:35:47.011Z,4.20
2023-03-06T13:39:08.590Z,4.30
2023-03-06T13:42:27.682Z,4.30
2023-03-06T13:45:35.470Z,4.40
2023-03-06T13:48:46.586Z,4.60
2023-03-06T13:52:07.887Z,4.70
2023-03-06T13:55:23.903Z,4.70
2023-03-06T13:58:39.298Z,4.70
2023-03-06T14:01:53.852Z,4.70
2023-03-06T14:04:58.807Z,4.50
2023-03-06T14:08:11.100Z,4.30
2023-03-06T14:11:21.807Z,4.20
2023-03-06T14:14:39.399Z,4.20
2023-03-06T14:17:54.044Z,4.10
2023-03-06T14:21:00.119Z,4.00
2023-03-06T14:24:04.859Z,3.70
2023-03-06T14:27:18.166Z,3.70
2023-03-06T14:30:25.374Z,3.90
2023-03-06T14:33:33.382Z,4.00
2023-03-06T14:36:43.375Z,4.30
2023-03-06T14:39:46.712Z,4.30
2023-03-06T14:43:10.330Z,4.00
2023-03-06T14:46:21.483Z,4.00
2023-03-06T14:49:26.407Z,3.70
2023-03-06T14:52:29.643Z,3.60
2023-03-06T14:55:36.431Z,3.50
2023-03-06T14:58:51.273Z,3.30
2023-03-06T15:02:00.059Z,3.40
2023-03-06T15:05:07.438Z,3.50
2023-03-06T15:08:10.609Z,3.60
2023-03-06T15:11:14.117Z,3.70
2023-03-06T15:14:21.731Z,3.60
2023-03-06T15:17:26.662Z,3.60
2023-03-06T15:20:41.287Z,3.50
2023-03-06T15:23:46.019Z,3.50
2023-03-06T15:27:01.460Z,3.50
2023-03-06T15:30:25.389Z,3.50
2023-03-06T15:33:28.357Z,3.50
2023-03-06T15:36:34.802Z,3.50
2023-03-06T15:39:39.464Z,3.30
2023-03-06T15:42:43.773Z,3.30
2023-03-06T15:45:48.427Z,3.10
2023-03-06T15:48:55.811Z,3.10
2023-03-06T15:51:58.825Z,2.90
2023-03-06T15:55:01.815Z,2.80
2023-03-06T15:58:06.359Z,2.70
2023-03-06T16:01:16.635Z,2.50
2023-03-06T16:04:19.886Z,2.50
2023-03-06T16:07:22.999Z,2.40
2023-03-06T16:10:28.409Z,2.30
2023-03-06T16:13:31.660Z,2.30
2023-03-06T16:16:37.661Z,2.20
2023-03-06T16:19:40.679Z,2.20
2023-03-06T16:22:46.184Z,2.10
2023-03-06T16:25:50.241Z,2.10
2023-03-06T16:28:53.217Z,2.10
2023-03-06T16:32:00.739Z,2.10
2023-03-06T16:35:03.790Z,2.00
2023-03-06T16:38:07.062Z,2.00
2023-03-06T16:41:10.082Z,1.90
2023-03-06T16:44:13.178Z,1.90
2023-03-06T16:47:18.352Z,1.90
2023-03-06T16:50:24.561Z,1.80
2023-03-06T16:53:28.054Z,1.80
2023-03-06T16:56:31.149Z,1.70
2023-03-06T16:59:34.207Z,1.60
2023-03-06T17:02:39.088Z,1.60
2023-03-06T17:05:44.085Z,1.60
2023-03-06T17:08:48.588Z,1.60
2023-03-06T17:11:51.773Z,1.60
2023-03-06T17:14:54.759Z,1.60
2023-03-06T17:17:59.494Z,1.50
2023-03-06T17:21:02.719Z,1.40
2023-03-06T17:24:06.289Z,1.40
2023-03-06T17:27:09.614Z,1.40
2023-03-06T17:30:13.594Z,1.30
2023-03-06T17:33:17.965Z,1.20
2023-03-06T17:36:21.194Z,1.20
2023-03-06T17:39:25.350Z,1.20
2023-03-06T17:42:28.398Z,1.10
2023-03-06T17:45:33.670Z,1.10
2023-03-06T17:48:38.363Z,1.00
2023-03-06T17:51:41.418Z,1.10
2023-03-06T17:54:45.102Z,1.10
2023-03-06T17:57:48.045Z,1.00
2023-03-06T18:00:51.057Z,1.00
2023-03-06T18:03:55.558Z,0.90
2023-03-06T18:06:58.723Z,0.90
2023-03-06T18:10:01.640Z,0.80
2023-03-06T18:13:04.567Z,0.80
2023-03-06T18:16:09.153Z,0.80
2023-03-06T18:19:14.293Z,0.80
2023-03-06T18:22:17.289Z,0.70
2023-03-06T18:25:20.425Z,0.60
2023-03-06T18:28:23.529Z,0.60
2023-03-06T18:31:28.660Z,0.60
2023-03-06T18:34:34.410Z,0.40
2023-03-06T18:37:38.000Z,0.40
2023-03-06T18:40:42.430Z,0.40
2023-03-06T18:43:45.936Z,0.40
2023-03-06T18:46:50.239Z,0.40
2023-03-06T18:49:55.202Z,0.30
2023-03-06T18:52:58.291Z,0.30
2023-03-06T18:56:01.459Z,0.20
2023-03-06T18:59:05.678Z,0.20
2023-03-06T19:02:08.971Z,0.10
2023-03-06T19:05:13.509Z,0.00
2023-03-06T19:08:18.508Z,0.00
2023-03-06T19:11:21.514Z,0.00
2023-03-06T19:14:27.888Z,0.00
2023-03-06T19:17:31.518Z,0.00
2023-03-06T19:20:35.857Z,0.00
2023-03-06T19:23:39.508Z,0.00
2023-03-06T19:26:42.727Z,-0.10
2023-03-06T19:29:45.716Z,-0.10
2023-03-06T19:32:48.792Z,-0.10
2023-03-06T19:35:53.357Z,-0.10
2023-03-06T19:38:57.161Z,-0.10
2023-03-06T19:42:00.180Z,-0.10
2023-03-06T19:45:03.326Z,-0.20
2023-03-06T19:48:10.163Z,-0.20
2023-03-06T19:51:14.779Z,-0.20
2023-03-06T19:54:23.146Z,-0.20
2023-03-06T19:57:26.230Z,-0.20
2023-03-06T20:00:29.760Z,-0.10
2023-03-06T20:03:34.126Z,-0.20
2023-03-06T20:06:38.913Z,-0.30
2023-03-06T20:09:45.005Z,-0.30
2023-03-06T20:12:47.975Z,-0.30
2023-03-06T20:15:51.015Z,-0.30
2023-03-06T20:18:54.156Z,-0.30
2023-03-06T20:21:58.517Z,-0.40
2023-03-06T20:25:01.955Z,-0.30
2023-03-06T20:28:06.161Z,-0.30
2023-03-06T20:31:10.140Z,-0.30
2023-03-06T20:34:14.754Z,-0.40
2023-03-06T20:37:19.367Z,-0.40
2023-03-06T20:40:22.686Z,-0.40
2023-03-06T20:43:25.862Z,-0.40
2023-03-06T20:46:29.359Z,-0.40
2023-03-06T20:49:32.470Z,-0.40
2023-03-06T20:52:36.828Z,-0.40
2023-03-06T20:55:39.857Z,-0.50
2023-03-06T20:58:44.917Z,-0.50
2023-03-06T21:01:48.118Z,-0.50
2023-03-06T21:04:51.271Z,-0.60
2023-03-06T21:07:55.597Z,-0.60
2023-03-06T21:10:58.603Z,-0.60
2023-03-06T21:14:02.139Z,-0.60
2023-03-06T21:17:05.194Z,-0.70
2023-03-06T21:20:10.520Z,-0.60
2023-03-06T21:23:15.004Z,-0.70
2023-03-06T21:26:20.691Z,-0.70
2023-03-06T21:29:23.699Z,-0.60
2023-03-06T21:32:26.754Z,-0.70
2023-03-06T21:35:31.181Z,-0.70
2023-03-06T21:38:35.830Z,-0.70
2023-03-06T21:41:39.400Z,-0.80
2023-03-06T21:44:42.417Z,-0.80
2023-03-06T21:47:45.758Z,-0.70
2023-03-06T21:50:48.745Z,-0.80
2023-03-06T21:53:54.125Z,-0.80
2023-03-06T21:56:57.565Z,-0.70
2023-03-06T22:00:00.678Z,-0.70
2023-03-06T22:03:04.694Z,-0.70
2023-03-06T22:06:12.397Z,-0.70
2023-03-06T22:09:19.014Z,-0.70
2023-03-06T22:12:22.345Z,-0.70
2023-03-06T22:15:25.393Z,-0.70
2023-03-06T22:18:28.907Z,-0.70
2023-03-06T22:21:32.070Z,-0.70
2023-03-06T22:24:36.654Z,-0.70
2023-03-06T22:27:39.712Z,-0.80
2023-03-06T22:30:42.728Z,-0.90
2023-03-06T22:33:46.183Z,-0.90
2023-03-06T22:36:49.265Z,-0.90
2023-03-06T22:39:53.696Z,-0.90
2023-03-06T22:42:56.699Z,-0.80
2023-03-06T22:46:03.074Z,-0.90
2023-03-06T22:49:06.395Z,-0.90
2023-03-06T22:52:09.399Z,-1.00
2023-03-06T22:55:13.838Z,-1.00
2023-03-06T22:58:16.821Z,-1.00
2023-03-06T23:01:22.459Z,-1.10
2023-03-06T23:04:25.764Z,-1.10
2023-03-06T23:07:28.808Z,-1.10
2023-03-06T23:10:37.226Z,-1.10
2023-03-06T23:13:41.637Z,-1.10
2023-03-06T23:16:44.768Z,-1.10
2023-03-06T23:19:50.464Z,-1.10
2023-03-06T23:22:53.444Z,-1.10
2023-03-06T23:26:01.560Z,-1.10
2023-03-06T23:29:05.446Z,-1.10
2023-03-06T23:32:09.069Z,-1.10
2023-03-06T23:35:14.405Z,-1.00
2023-03-06T23:38:17.504Z,-1.00
2023-03-06T23:41:22.924Z,-1.00
2023-03-06T23:44:26.368Z,-0.90
2023-03-06T23:47:33.133Z,-1.00
2023-03-06T23:50:36.466Z,-0.90
2023-03-06T23:53:39.890Z,-1.00
2023-03-06T23:56:44.716Z,-1.00
2023-03-06T23:59:48.042Z,-1.00
